Time;durP1;ratioP1;P1;durP2;ratioP2;P2;SDS_P1;SDS_P2;PMS_P1;PMS_P2;Temp;Humidity;BMP_temperature;BMP_pressure;BME280_temperature;BME280_humidity;BME280_pressure;Samples;Min_cycle;Max_cycle;Signal;HPM_P1;HPM_P2
2023/03/25 00:01:03;;;;;;;1.40;1.10;;;19.10;46.50;;;;;;4919613;28;20984;-75
2023/03/25 00:03:32;;;;;;;1.53;1.27;;;19.10;46.60;;;;;;4920430;28;21264;-75
2023/03/25 00:05:58;;;;;;;1.00;0.90;;;19.10;46.60;;;;;;4920438;29;21060;-74
2023/03/25 00:08:25;;;;;;;2.13;1.17;;;19.10;46.60;;;;;;4923033;28;20449;-74
2023/03/25 00:10:53;;;;;;;1.83;1.00;;;19.10;46.60;;;;;;4917531;28;20456;-74
2023/03/25 00:13:20;;;;;;;1.20;1.10;;;19.10;46.60;;;;;;4919031;28;20475;-74
2023/03/25 00:15:52;;;;;;;1.70;1.37;;;19.10;46.60;;;;;;4921375;29;20893;-74
2023/03/25 00:18:21;;;;;;;1.97;1.63;;;19.10;46.60;;;;;;4921184;28;20420;-74
2023/03/25 00:20:50;;;;;;;1.80;1.13;;;19.10;46.60;;;;;;4916722;28;20463;-74
2023/03/25 00:23:20;;;;;;;1.70;1.03;;;19.10;46.60;;;;;;4921711;28;20464;-74
2023/03/25 00:25:47;;;;;;;1.20;0.77;;;19.10;46.60;;;;;;4918077;28;20415;-74
2023/03/25 00:28:14;;;;;;;1.77;1.07;;;19.10;46.60;;;;;;4920865;29;20480;-74
2023/03/25 00:30:41;;;;;;;1.40;1.10;;;19.10;46.60;;;;;;4916431;28;20495;-75
2023/03/25 00:33:09;;;;;;;1.63;1.43;;;19.10;46.60;;;;;;4918094;28;20511;-75
2023/03/25 00:35:36;;;;;;;1.90;0.87;;;19.10;46.70;;;;;;4915818;28;20490;-74
2023/03/25 00:38:01;;;;;;;1.00;0.90;;;19.10;46.60;;;;;;4922036;28;22098;-74
2023/03/25 00:40:33;;;;;;;1.30;1.20;;;19.10;46.60;;;;;;4917661;28;20466;-74
2023/03/25 00:42:59;;;;;;;1.77;1.67;;;19.10;46.60;;;;;;4920352;28;20250;-75
2023/03/25 00:45:25;;;;;;;1.20;0.90;;;19.10;46.60;;;;;;4918349;28;20515;-74
2023/03/25 00:47:50;;;;;;;1.47;1.37;;;19.10;46.60;;;;;;4919503;28;21350;-74
2023/03/25 00:50:16;;;;;;;0.90;0.80;;;19.10;46.60;;;;;;4915564;28;20207;-75
2023/03/25 00:52:42;;;;;;;2.10;1.00;;;19.10;46.60;;;;;;4923510;28;20285;-75
2023/03/25 00:55:08;;;;;;;1.57;0.90;;;19.10;46.60;;;;;;4905264;28;20242;-74
2023/03/25 00:57:33;;;;;;;0.93;0.90;;;19.10;46.60;;;;;;4918881;28;20229;-74
2023/03/25 00:59:59;;;;;;;1.00;0.90;;;19.10;46.60;;;;;;4921908;28;20435;-75
2023/03/25 01:02:24;;;;;;;1.07;0.97;;;19.10;46.60;;;;;;4922279;28;20822;-75
2023/03/25 01:04:50;;;;;;;1.00;0.80;;;19.10;46.60;;;;;;4920928;29;20222;-74
2023/03/25 01:07:17;;;;;;;0.70;0.70;;;19.10;46.60;;;;;;4923778;28;20292;-74
2023/03/25 01:09:45;;;;;;;1.20;0.90;;;19.10;46.50;;;;;;4924423;28;20649;-75
2023/03/25 01:12:11;;;;;;;1.63;0.80;;;19.10;46.60;;;;;;4920805;28;20408;-75
2023/03/25 01:14:36;;;;;;;1.10;0.90;;;19.10;46.60;;;;;;4918464;28;20509;-74
2023/03/25 01:17:02;;;;;;;1.10;1.00;;;19.10;46.60;;;;;;4922522;28;20236;-75
2023/03/25 01:19:27;;;;;;;1.50;0.90;;;19.10;46.60;;;;;;4919596;28;20266;-74
2023/03/25 01:21:53;;;;;;;1.33;0.70;;;19.10;46.60;;;;;;4917274;29;20218;-75
2023/03/25 01:24:19;;;;;;;0.90;0.90;;;19.10;46.70;;;;;;4915507;28;20281;-75
2023/03/25 01:26:45;;;;;;;1.00;0.83;;;19.10;46.70;;;;;;4919124;28;20315;-75
2023/03/25 01:29:16;;;;;;;1.97;0.80;;;19.10;46.60;;;;;;4917720;28;20320;-75
2023/03/25 01:31:42;;;;;;;1.10;0.90;;;19.10;46.70;;;;;;4917109;28;20261;-74
2023/03/25 01:34:09;;;;;;;1.00;0.90;;;19.10;46.60;;;;;;4916459;28;20461;-74
2023/03/25 01:36:36;;;;;;;1.00;0.90;;;19.10;46.60;;;;;;4916358;29;20468;-74
2023/03/25 01:39:04;;;;;;;0.90;0.80;;;19.10;46.60;;;;;;4919023;28;20456;-74
2023/03/25 01:41:30;;;;;;;0.90;0.80;;;19.10;46.60;;;;;;4915523;28;20958;-74
2023/03/25 01:44:06;;;;;;;1.00;0.80;;;19.10;46.60;;;;;;4914176;28;20512;-75
2023/03/25 01:46:32;;;;;;;1.40;0.90;;;19.10;46.60;;;;;;4916053;28;20457;-74
2023/03/25 01:49:01;;;;;;;0.90;0.83;;;19.10;46.60;;;;;;4917011;28;20436;-74
2023/03/25 01:51:31;;;;;;;1.27;0.90;;;19.10;46.60;;;;;;4918598;28;21082;-74
2023/03/25 01:53:57;;;;;;;1.00;0.80;;;19.10;46.60;;;;;;4919985;28;20448;-74
2023/03/25 01:56:29;;;;;;;1.17;1.07;;;19.10;46.60;;;;;;4916466;28;20438;-74
2023/03/25 01:58:56;;;;;;;0.90;0.77;;;19.10;46.60;;;;;;4916084;28;20226;-74
2023/03/25 02:01:21;;;;;;;0.80;0.60;;;19.10;46.60;;;;;;4914331;28;20802;-74
2023/03/25 02:03:49;;;;;;;1.10;0.70;;;19.10;46.60;;;;;;4917393;29;20420;-74
2023/03/25 02:06:31;;;;;;;1.60;0.70;;;19.10;46.60;;;;;;4914793;28;20316;-74
2023/03/25 02:09:04;;;;;;;2.40;0.80;;;19.10;46.60;;;;;;4915800;28;20434;-74
2023/03/25 02:11:29;;;;;;;1.00;0.90;;;19.10;46.60;;;;;;4917621;28;20423;-74
2023/03/25 02:13:58;;;;;;;0.70;0.60;;;19.00;46.50;;;;;;4914951;28;21045;-74
2023/03/25 02:17:02;;;;;;;0.90;0.70;;;19.10;46.60;;;;;;4916046;28;20226;-74
2023/03/25 02:19:39;;;;;;;0.93;0.73;;;19.10;46.60;;;;;;4912488;28;20435;-75
2023/03/25 02:22:20;;;;;;;1.13;0.70;;;19.10;46.60;;;;;;4919469;28;20450;-74
2023/03/25 02:25:00;;;;;;;1.10;0.80;;;19.10;46.60;;;;;;4914127;28;20466;-74
2023/03/25 02:27:44;;;;;;;2.67;0.80;;;19.00;46.50;;;;;;4914029;28;20497;-74
2023/03/25 02:30:26;;;;;;;1.07;0.93;;;19.00;46.60;;;;;;4912103;28;20424;-74
2023/03/25 02:33:19;;;;;;;0.90;0.80;;;19.00;46.60;;;;;;4914607;28;20427;-74
2023/03/25 02:36:10;;;;;;;1.50;0.70;;;19.00;46.60;;;;;;4914762;28;21025;-74
2023/03/25 02:38:56;;;;;;;0.70;0.60;;;19.00;46.60;;;;;;4896973;29;20441;-74
2023/03/25 02:41:48;;;;;;;1.03;0.80;;;19.00;46.60;;;;;;4890449;29;20486;-74
2023/03/25 02:44:28;;;;;;;0.70;0.60;;;19.00;46.70;;;;;;4874726;29;20556;-74
2023/03/25 02:46:57;;;;;;;0.93;0.83;;;19.00;46.60;;;;;;4895309;28;20476;-74
2023/03/25 02:49:36;;;;;;;0.87;0.70;;;19.00;46.60;;;;;;4889963;29;20452;-75
2023/03/25 02:52:10;;;;;;;0.80;0.70;;;19.00;46.60;;;;;;4891699;29;20437;-74
2023/03/25 02:54:40;;;;;;;1.00;0.80;;;19.10;46.70;;;;;;4896955;29;20515;-74
2023/03/25 02:57:07;;;;;;;0.93;0.80;;;19.00;46.60;;;;;;4897457;29;20469;-74
2023/03/25 02:59:37;;;;;;;0.80;0.60;;;19.00;46.60;;;;;;4888946;28;20608;-74
2023/03/25 03:02:09;;;;;;;0.90;0.70;;;19.00;46.60;;;;;;4892425;29;20449;-74
2023/03/25 03:04:48;;;;;;;0.93;0.80;;;19.00;46.50;;;;;;4876540;29;20942;-75
2023/03/25 03:07:23;;;;;;;0.90;0.80;;;19.00;46.60;;;;;;4895915;29;20510;-74
2023/03/25 03:10:04;;;;;;;0.80;0.70;;;19.00;46.60;;;;;;4893399;29;20495;-74
2023/03/25 03:12:57;;;;;;;0.70;0.70;;;19.00;46.60;;;;;;4894675;29;21287;-74
2023/03/25 03:15:48;;;;;;;2.23;0.80;;;19.00;46.60;;;;;;4891234;29;20898;-74
2023/03/25 03:18:33;;;;;;;0.90;0.80;;;19.00;46.60;;;;;;4895804;29;20428;-74
2023/03/25 03:21:11;;;;;;;1.50;0.80;;;19.00;46.60;;;;;;4891600;29;20523;-74
2023/03/25 03:23:58;;;;;;;1.00;0.73;;;19.00;46.60;;;;;;4894727;29;20420;-74
2023/03/25 03:26:37;;;;;;;0.80;0.70;;;19.00;46.60;;;;;;4891278;29;20436;-75
2023/03/25 03:29:27;;;;;;;0.80;0.73;;;19.00;46.60;;;;;;4896243;28;20783;-74
2023/03/25 03:32:05;;;;;;;0.80;0.70;;;19.00;46.60;;;;;;4887542;28;20963;-74
2023/03/25 03:34:58;;;;;;;1.17;0.80;;;19.00;46.60;;;;;;4890941;29;20530;-75
2023/03/25 03:37:30;;;;;;;0.70;0.60;;;19.00;46.60;;;;;;4902188;28;20484;-74
2023/03/25 03:39:57;;;;;;;0.80;0.70;;;19.00;46.60;;;;;;4919919;28;20590;-74
2023/03/25 03:42:33;;;;;;;1.00;0.90;;;19.00;46.60;;;;;;4923413;28;20443;-74
2023/03/25 03:45:25;;;;;;;0.80;0.80;;;19.00;46.60;;;;;;4914319;28;20552;-75
2023/03/25 03:47:54;;;;;;;0.80;0.60;;;19.00;46.60;;;;;;4906049;28;20831;-74
2023/03/25 03:50:30;;;;;;;0.70;0.60;;;19.00;46.60;;;;;;4918700;28;20424;-75
2023/03/25 03:53:07;;;;;;;0.97;0.70;;;19.00;46.60;;;;;;4922269;28;20494;-75
2023/03/25 03:56:04;;;;;;;2.03;1.03;;;19.00;46.50;;;;;;4916142;29;20978;-74
2023/03/25 03:58:43;;;;;;;1.20;0.90;;;19.00;46.60;;;;;;4914635;28;21021;-75
2023/03/25 04:01:29;;;;;;;0.83;0.60;;;19.00;46.60;;;;;;4914460;28;20999;-73
2023/03/25 04:04:09;;;;;;;0.80;0.60;;;19.00;46.60;;;;;;4917183;28;20484;-70
2023/03/25 04:06:41;;;;;;;1.57;0.60;;;19.00;46.60;;;;;;4912000;29;20575;-73
2023/03/25 04:09:17;;;;;;;1.03;0.90;;;19.00;46.60;;;;;;4921186;28;20404;-73
2023/03/25 04:12:17;;;;;;;0.80;0.80;;;19.00;46.50;;;;;;4918526;28;21252;-73
2023/03/25 04:14:43;;;;;;;0.90;0.80;;;19.00;46.50;;;;;;4900216;28;20444;-73
2023/03/25 04:17:09;;;;;;;0.90;0.60;;;19.00;47.30;;;;;;4922128;28;20464;-73
2023/03/25 04:19:35;;;;;;;0.90;0.80;;;19.00;46.50;;;;;;4915712;29;20565;-71
2023/03/25 04:22:01;;;;;;;0.70;0.60;;;19.00;46.50;;;;;;4919089;29;20840;-73
2023/03/25 04:24:31;;;;;;;0.60;0.57;;;19.00;46.50;;;;;;4923582;29;20222;-73
2023/03/25 04:27:03;;;;;;;0.70;0.70;;;19.00;46.50;;;;;;4916439;28;20492;-73
2023/03/25 04:29:32;;;;;;;0.70;0.60;;;19.00;46.50;;;;;;4919974;28;20451;-73
2023/03/25 04:31:58;;;;;;;0.70;0.70;;;19.00;46.40;;;;;;4921379;28;20568;-73
2023/03/25 04:34:25;;;;;;;0.70;0.67;;;19.00;46.50;;;;;;4923154;28;20472;-73
2023/03/25 04:36:51;;;;;;;0.70;0.60;;;19.00;46.40;;;;;;4923663;28;20511;-73
2023/03/25 04:39:21;;;;;;;0.80;0.70;;;19.00;46.50;;;;;;4924229;28;20489;-73
2023/03/25 04:41:50;;;;;;;0.80;0.67;;;19.00;46.50;;;;;;4921858;29;22083;-71
2023/03/25 04:44:16;;;;;;;2.10;1.03;;;19.00;46.40;;;;;;4918064;28;20467;-75
2023/03/25 04:46:42;;;;;;;0.80;0.70;;;19.00;46.40;;;;;;4919855;29;20552;-75
2023/03/25 04:49:18;;;;;;;1.20;0.70;;;19.00;46.40;;;;;;4917668;28;20473;-75
2023/03/25 04:51:44;;;;;;;0.90;0.70;;;19.00;46.40;;;;;;4922512;28;20922;-75
2023/03/25 04:54:10;;;;;;;0.83;0.70;;;19.00;46.40;;;;;;4918328;28;20451;-74
2023/03/25 04:56:36;;;;;;;1.00;0.90;;;19.00;46.30;;;;;;4919496;28;20540;-75
2023/03/25 04:59:03;;;;;;;0.80;0.67;;;19.00;46.30;;;;;;4923621;28;20554;-75
2023/03/25 05:01:31;;;;;;;0.80;0.60;;;19.00;46.30;;;;;;4919767;28;21035;-74
2023/03/25 05:04:04;;;;;;;0.93;0.63;;;19.00;46.30;;;;;;4918378;28;20465;-75
2023/03/25 05:06:34;;;;;;;0.70;0.57;;;19.10;46.40;;;;;;4918884;28;20462;-74
2023/03/25 05:09:03;;;;;;;1.20;0.67;;;19.00;46.30;;;;;;4917774;28;20472;-74
2023/03/25 05:11:29;;;;;;;0.90;0.70;;;19.00;46.30;;;;;;4921299;28;20445;-73
2023/03/25 05:13:55;;;;;;;0.80;0.70;;;19.00;46.30;;;;;;4919121;28;21254;-74
2023/03/25 05:16:21;;;;;;;0.90;0.77;;;19.10;46.40;;;;;;4919213;28;20532;-74
2023/03/25 05:18:47;;;;;;;0.70;0.70;;;19.10;46.40;;;;;;4922032;28;20709;-74
2023/03/25 05:21:12;;;;;;;1.57;0.80;;;19.10;46.40;;;;;;4916401;29;20439;-73
2023/03/25 05:23:38;;;;;;;0.70;0.63;;;19.10;46.40;;;;;;4922437;28;20238;-74
2023/03/25 05:26:05;;;;;;;1.23;0.60;;;19.10;46.30;;;;;;4921617;28;20320;-73
2023/03/25 05:28:30;;;;;;;0.97;0.73;;;19.10;46.30;;;;;;4914878;28;20888;-75
2023/03/25 05:30:56;;;;;;;0.60;0.60;;;19.10;46.40;;;;;;4917046;28;20451;-73
2023/03/25 05:33:22;;;;;;;0.80;0.70;;;19.10;46.40;;;;;;4920505;28;20252;-74
2023/03/25 05:35:48;;;;;;;1.00;0.70;;;19.10;46.40;;;;;;4917141;28;20927;-74
2023/03/25 05:38:17;;;;;;;0.70;0.60;;;19.10;46.30;;;;;;4919525;28;20701;-74
2023/03/25 05:40:46;;;;;;;1.83;0.77;;;19.10;46.30;;;;;;4916865;28;20992;-74
2023/03/25 05:43:14;;;;;;;1.03;0.93;;;19.10;46.40;;;;;;4916404;29;20439;-74
2023/03/25 05:45:40;;;;;;;3.87;1.27;;;19.10;46.40;;;;;;4917510;29;20419;-74
2023/03/25 05:48:07;;;;;;;0.80;0.60;;;19.10;46.30;;;;;;4914526;28;20452;-75
2023/03/25 05:50:33;;;;;;;1.37;0.70;;;19.10;47.10;;;;;;4916867;28;20431;-75
2023/03/25 05:52:58;;;;;;;0.70;0.60;;;19.10;46.30;;;;;;4920584;29;20833;-74
2023/03/25 05:55:24;;;;;;;0.87;0.60;;;19.10;46.30;;;;;;4921350;28;20483;-74
2023/03/25 05:57:50;;;;;;;0.87;0.70;;;19.10;46.30;;;;;;4922128;28;20229;-74
2023/03/25 06:00:18;;;;;;;0.80;0.63;;;19.10;46.30;;;;;;4921372;29;21067;-75
2023/03/25 06:02:44;;;;;;;0.83;0.70;;;19.10;46.30;;;;;;4922605;28;20340;-75
2023/03/25 06:05:12;;;;;;;1.80;0.80;;;19.10;46.30;;;;;;4921965;28;20432;-74
2023/03/25 06:07:42;;;;;;;0.80;0.60;;;19.10;46.30;;;;;;4915022;28;20419;-74
2023/03/25 06:10:15;;;;;;;0.80;0.70;;;19.10;46.30;;;;;;4915447;28;20489;-75
2023/03/25 06:12:42;;;;;;;0.80;0.60;;;19.10;46.30;;;;;;4921081;28;20455;-74
2023/03/25 06:15:09;;;;;;;1.77;0.60;;;19.10;46.30;;;;;;4918141;28;20453;-75
2023/03/25 06:17:37;;;;;;;0.63;0.60;;;19.10;46.30;;;;;;4917019;28;20469;-72
2023/03/25 06:20:09;;;;;;;0.90;0.67;;;19.10;46.20;;;;;;4916126;28;20428;-74
2023/03/25 06:22:41;;;;;;;0.90;0.60;;;19.10;46.30;;;;;;4923922;28;20440;-74
2023/03/25 06:25:08;;;;;;;1.70;0.80;;;19.10;46.20;;;;;;4917239;28;20446;-74
2023/03/25 06:27:39;;;;;;;0.80;0.63;;;19.10;46.20;;;;;;4918661;28;20862;-75
2023/03/25 06:30:06;;;;;;;0.80;0.70;;;19.10;46.20;;;;;;4899584;29;20454;-75
2023/03/25 06:32:32;;;;;;;0.90;0.60;;;19.10;46.20;;;;;;4917562;28;21989;-74
2023/03/25 06:34:57;;;;;;;0.97;0.80;;;19.10;46.20;;;;;;4918513;28;20451;-74
2023/03/25 06:37:25;;;;;;;1.53;0.73;;;19.10;46.20;;;;;;4921597;28;20230;-74
2023/03/25 06:39:55;;;;;;;1.23;0.77;;;19.10;46.20;;;;;;4916878;28;20241;-74
2023/03/25 06:42:22;;;;;;;1.60;0.80;;;19.10;46.20;;;;;;4917712;28;20487;-74
2023/03/25 06:44:48;;;;;;;0.80;0.60;;;19.10;46.20;;;;;;4915938;29;20490;-74
2023/03/25 06:47:14;;;;;;;2.70;0.73;;;19.10;46.20;;;;;;4919834;28;20962;-74
2023/03/25 06:49:39;;;;;;;1.13;0.60;;;19.10;46.20;;;;;;4917131;28;20278;-75
2023/03/25 06:52:05;;;;;;;0.90;0.70;;;19.10;46.20;;;;;;4916266;29;20270;-74
2023/03/25 06:54:30;;;;;;;2.57;0.67;;;19.10;46.20;;;;;;4916357;28;20712;-75
2023/03/25 06:56:56;;;;;;;0.80;0.80;;;19.10;46.20;;;;;;4921718;28;20225;-72
2023/03/25 06:59:21;;;;;;;0.87;0.60;;;19.10;46.20;;;;;;4915509;28;20228;-72
2023/03/25 07:01:47;;;;;;;0.93;0.63;;;19.10;46.20;;;;;;4917782;28;20237;-72
2023/03/25 07:04:12;;;;;;;0.70;0.50;;;19.10;46.20;;;;;;4922413;28;20222;-72
2023/03/25 07:06:38;;;;;;;1.90;0.67;;;19.10;46.10;;;;;;4919326;29;20225;-72
2023/03/25 07:09:04;;;;;;;1.13;0.90;;;19.10;46.10;;;;;;4904540;29;20307;-74
2023/03/25 07:11:30;;;;;;;0.73;0.73;;;19.10;46.10;;;;;;4917411;28;20269;-76
2023/03/25 07:13:56;;;;;;;0.70;0.70;;;19.10;46.10;;;;;;4922393;28;20230;-75
2023/03/25 07:16:22;;;;;;;1.10;0.80;;;19.10;46.20;;;;;;4920615;28;20521;-74
2023/03/25 07:18:49;;;;;;;0.80;0.70;;;19.10;46.10;;;;;;4923433;28;20222;-75
2023/03/25 07:21:15;;;;;;;0.90;0.70;;;19.10;46.10;;;;;;4912231;29;20461;-74
2023/03/25 07:23:41;;;;;;;0.80;0.63;;;19.10;46.10;;;;;;4920715;28;20519;-74
2023/03/25 07:26:07;;;;;;;1.10;0.60;;;19.10;46.10;;;;;;4913485;28;20292;-74
2023/03/25 07:28:32;;;;;;;1.03;0.70;;;19.10;46.10;;;;;;4912070;28;20745;-73
2023/03/25 07:30:58;;;;;;;0.80;0.60;;;19.10;46.20;;;;;;4914119;28;20482;-74
2023/03/25 07:33:23;;;;;;;0.90;0.70;;;19.10;46.10;;;;;;4915737;28;20792;-74
2023/03/25 07:35:49;;;;;;;0.80;0.60;;;19.10;46.10;;;;;;4912017;28;20218;-74
2023/03/25 07:38:15;;;;;;;0.70;0.60;;;19.10;46.10;;;;;;4917143;28;20226;-74
2023/03/25 07:40:40;;;;;;;1.00;0.70;;;19.10;46.10;;;;;;4919821;28;20277;-74
2023/03/25 07:43:06;;;;;;;0.80;0.70;;;19.10;46.10;;;;;;4918641;28;20245;-74
2023/03/25 07:45:31;;;;;;;1.30;0.60;;;19.10;46.10;;;;;;4917735;28;20215;-75
2023/03/25 07:48:02;;;;;;;0.70;0.60;;;19.10;46.10;;;;;;4915871;28;20227;-71
2023/03/25 07:50:27;;;;;;;0.83;0.80;;;19.10;46.10;;;;;;4914677;28;20407;-73
2023/03/25 07:52:54;;;;;;;0.90;0.70;;;19.10;46.10;;;;;;4920586;28;20968;-73
2023/03/25 07:55:19;;;;;;;1.10;0.60;;;19.10;46.10;;;;;;4916698;28;20238;-73
2023/03/25 07:57:45;;;;;;;0.80;0.70;;;19.10;46.10;;;;;;4916073;28;20465;-72
2023/03/25 08:00:11;;;;;;;0.80;0.70;;;19.10;46.10;;;;;;4916760;29;20222;-73
2023/03/25 08:02:38;;;;;;;1.00;0.80;;;19.10;46.80;;;;;;4911457;28;20234;-72
2023/03/25 08:05:04;;;;;;;3.43;0.80;;;19.10;46.10;;;;;;4918851;29;20459;-73
2023/03/25 08:07:30;;;;;;;0.70;0.60;;;19.10;46.10;;;;;;4920550;28;20794;-72
2023/03/25 08:09:56;;;;;;;0.80;0.70;;;19.10;46.00;;;;;;4919677;28;20488;-73
2023/03/25 08:12:21;;;;;;;0.93;0.60;;;19.10;46.00;;;;;;4915061;28;20436;-72
2023/03/25 08:14:47;;;;;;;2.10;1.00;;;19.10;46.00;;;;;;4918723;29;20644;-72
2023/03/25 08:17:12;;;;;;;1.30;0.73;;;19.10;46.00;;;;;;4917550;28;20226;-73
2023/03/25 08:19:38;;;;;;;1.07;0.70;;;19.10;46.10;;;;;;4922959;28;20226;-71
2023/03/25 08:22:04;;;;;;;1.10;0.70;;;19.10;46.10;;;;;;4924727;29;20226;-71
2023/03/25 08:24:31;;;;;;;1.70;0.60;;;19.10;46.10;;;;;;4917095;28;20580;-74
2023/03/25 08:26:59;;;;;;;0.70;0.60;;;19.10;46.10;;;;;;4919120;28;20233;-72
2023/03/25 08:29:26;;;;;;;1.20;0.63;;;19.10;46.10;;;;;;4917664;29;20465;-70
2023/03/25 08:31:52;;;;;;;1.73;1.30;;;19.10;46.10;;;;;;4922148;28;20446;-70
2023/03/25 08:34:19;;;;;;;3.80;1.97;;;19.10;46.10;;;;;;4919927;28;20459;-71
2023/03/25 08:36:45;;;;;;;6.97;2.00;;;19.10;46.00;;;;;;4918216;29;20823;-71
2023/03/25 08:39:11;;;;;;;2.50;1.70;;;19.20;46.00;;;;;;4920585;28;20476;-71
2023/03/25 08:41:37;;;;;;;4.53;1.60;;;19.20;45.90;;;;;;4917668;28;20368;-71
2023/03/25 08:44:04;;;;;;;2.17;1.53;;;19.20;45.90;;;;;;4917364;28;20439;-72
2023/03/25 08:46:30;;;;;;;2.47;1.43;;;19.20;45.80;;;;;;4913572;28;20477;-71
2023/03/25 08:48:55;;;;;;;1.90;1.80;;;19.20;45.90;;;;;;4914153;28;21033;-72
2023/03/25 08:51:21;;;;;;;3.60;2.00;;;19.20;45.90;;;;;;4915276;28;20218;-71
2023/03/25 08:53:47;;;;;;;5.67;1.60;;;19.20;45.90;;;;;;4910557;28;20237;-72
2023/03/25 08:56:13;;;;;;;2.00;1.20;;;19.20;45.90;;;;;;4905292;28;20468;-73
2023/03/25 08:58:38;;;;;;;3.03;1.40;;;19.20;46.00;;;;;;4906943;28;21389;-73
2023/03/25 09:01:05;;;;;;;7.23;1.50;;;19.20;45.90;;;;;;4914392;28;20428;-73
2023/03/25 09:03:31;;;;;;;2.30;1.30;;;19.20;45.90;;;;;;4907124;28;20747;-73
2023/03/25 09:05:57;;;;;;;5.43;1.90;;;19.20;45.90;;;;;;4912253;28;20439;-77
2023/03/25 09:08:23;;;;;;;3.30;1.60;;;19.20;45.90;;;;;;4912812;28;20497;-72
2023/03/25 09:10:48;;;;;;;1.47;1.37;;;19.20;45.90;;;;;;4910165;28;20247;-75
2023/03/25 09:13:14;;;;;;;5.77;1.33;;;19.20;45.90;;;;;;4905070;28;20346;-75
2023/03/25 09:15:39;;;;;;;4.50;1.60;;;19.20;45.90;;;;;;4911933;28;20434;-74
2023/03/25 09:18:05;;;;;;;1.40;0.90;;;19.20;45.80;;;;;;4914658;28;20302;-74
2023/03/25 09:20:32;;;;;;;1.50;1.10;;;19.20;45.80;;;;;;4911399;28;20227;-73
2023/03/25 09:22:58;;;;;;;1.40;1.30;;;19.20;45.80;;;;;;4914756;28;20633;-74
2023/03/25 09:25:24;;;;;;;2.10;1.03;;;19.20;45.80;;;;;;4916798;28;20444;-73
2023/03/25 09:27:50;;;;;;;4.53;1.47;;;19.20;45.80;;;;;;4907748;29;20690;-74
2023/03/25 09:30:15;;;;;;;1.50;1.00;;;19.20;45.80;;;;;;4916180;28;20443;-75
2023/03/25 09:32:41;;;;;;;2.57;1.27;;;19.20;45.70;;;;;;4912753;28;20287;-77
2023/03/25 09:35:07;;;;;;;1.17;1.00;;;19.20;45.70;;;;;;4915983;28;20238;-76
2023/03/25 09:37:33;;;;;;;1.27;1.10;;;19.20;45.80;;;;;;4917587;28;20245;-77
2023/03/25 09:39:58;;;;;;;2.17;1.10;;;19.20;45.80;;;;;;4915889;28;20427;-76
2023/03/25 09:42:43;;;;;;;1.27;1.00;;;19.20;45.80;;;;;;4915492;29;20249;-74
2023/03/25 09:45:33;;;;;;;2.40;1.00;;;19.20;45.80;;;;;;4915102;28;20270;-73
2023/03/25 09:48:05;;;;;;;4.30;1.30;;;19.20;45.80;;;;;;4916511;28;21155;-78
2023/03/25 09:50:33;;;;;;;1.23;1.00;;;19.20;45.80;;;;;;4911733;28;20492;-74
2023/03/25 09:53:25;;;;;;;1.40;1.00;;;19.10;45.60;;;;;;4898485;29;20485;-74
2023/03/25 09:55:51;;;;;;;2.23;1.30;;;19.20;46.50;;;;;;4909045;28;21654;-75
2023/03/25 09:58:25;;;;;;;2.17;1.13;;;19.20;45.80;;;;;;4916832;28;20476;-76
2023/03/25 10:00:59;;;;;;;2.53;0.97;;;19.20;45.70;;;;;;4916779;28;20220;-76
2023/03/25 10:03:45;;;;;;;1.13;1.03;;;19.10;45.70;;;;;;4899729;29;20430;-76
2023/03/25 10:06:18;;;;;;;1.27;1.00;;;19.10;45.70;;;;;;4915159;29;20549;-76
2023/03/25 10:08:51;;;;;;;0.90;0.80;;;19.10;45.70;;;;;;4917777;29;20453;-76
2023/03/25 10:11:34;;;;;;;2.53;0.90;;;19.10;45.70;;;;;;4901892;29;20439;-76
2023/03/25 10:14:10;;;;;;;1.00;0.80;;;19.10;45.60;;;;;;4915848;28;20954;-77
2023/03/25 10:16:45;;;;;;;2.23;0.90;;;19.10;45.60;;;;;;4913275;28;20451;-76
2023/03/25 10:19:36;;;;;;;1.83;1.00;;;19.20;45.60;;;;;;4913373;29;20443;-78
2023/03/25 10:22:22;;;;;;;1.00;0.90;;;19.20;45.50;;;;;;4919620;28;20432;-77
2023/03/25 10:24:59;;;;;;;3.10;0.90;;;19.10;45.40;;;;;;4915598;28;20471;-77
2023/03/25 10:28:00;;;;;;;2.50;1.00;;;19.20;45.60;;;;;;4903331;29;20443;-78
2023/03/25 10:30:42;;;;;;;1.33;1.00;;;19.10;45.50;;;;;;4870506;29;20416;-78
2023/03/25 10:33:17;;;;;;;2.07;0.90;;;19.20;45.60;;;;;;4915705;29;20507;-77
2023/03/25 10:35:46;;;;;;;0.90;0.80;;;19.10;45.50;;;;;;4913556;28;20462;-78
2023/03/25 10:38:19;;;;;;;1.50;1.00;;;19.10;45.60;;;;;;4920280;28;20468;-77
2023/03/25 10:40:51;;;;;;;1.57;1.07;;;19.10;45.60;;;;;;4902374;29;21060;-77
2023/03/25 10:43:38;;;;;;;4.50;1.37;;;19.20;45.70;;;;;;4914949;28;20885;-78
2023/03/25 10:47:05;;;;;;;2.37;1.07;;;19.20;45.70;;;;;;4913939;28;20555;-77
2023/03/25 10:49:32;;;;;;;1.53;1.03;;;19.20;45.70;;;;;;4863478;29;20983;-78
2023/03/25 10:51:59;;;;;;;1.17;1.07;;;19.10;45.60;;;;;;4926026;28;20965;-77
2023/03/25 10:54:36;;;;;;;2.07;1.37;;;19.10;45.60;;;;;;4916331;28;20819;-78
2023/03/25 10:57:06;;;;;;;1.20;1.10;;;19.10;45.60;;;;;;4904587;28;21006;-76
2023/03/25 10:59:45;;;;;;;1.13;0.73;;;19.10;45.60;;;;;;4920524;28;20481;-78
2023/03/25 11:02:16;;;;;;;0.90;0.70;;;19.20;45.80;;;;;;4920577;28;20496;-77
2023/03/25 11:04:44;;;;;;;1.63;1.00;;;19.10;45.70;;;;;;4926709;28;20864;-77
2023/03/25 11:07:31;;;;;;;0.90;0.80;;;19.10;45.60;;;;;;4925732;28;20491;-77
2023/03/25 11:10:18;;;;;;;2.03;0.97;;;19.20;45.60;;;;;;4915973;28;21045;-77
2023/03/25 11:12:47;;;;;;;2.00;1.30;;;19.20;45.70;;;;;;4921376;28;20589;-77
2023/03/25 11:15:19;;;;;;;1.40;0.90;;;19.20;45.70;;;;;;4916678;28;20852;-77
2023/03/25 11:17:46;;;;;;;0.97;0.93;;;19.20;45.60;;;;;;4922962;28;20845;-77
2023/03/25 11:20:27;;;;;;;1.20;0.90;;;19.20;45.60;;;;;;4903689;29;20454;-77
2023/03/25 11:22:53;;;;;;;3.63;0.90;;;19.20;45.60;;;;;;4914528;29;20434;-76
2023/03/25 11:25:23;;;;;;;0.90;0.70;;;19.20;45.50;;;;;;4916162;28;20494;-77
2023/03/25 11:27:58;;;;;;;145.70;10.63;;;19.20;45.60;;;;;;4919156;28;20490;-74
2023/03/25 11:30:24;;;;;;;9.07;2.50;;;19.20;45.30;;;;;;4919619;28;20463;-72
2023/03/25 11:33:11;;;;;;;2.30;1.27;;;19.20;45.20;;;;;;4922245;28;20441;-74
2023/03/25 11:35:42;;;;;;;3.17;1.50;;;19.20;45.20;;;;;;4920133;28;20549;-75
2023/03/25 11:38:22;;;;;;;1.97;0.90;;;19.20;45.20;;;;;;4905835;28;20942;-72
2023/03/25 11:40:54;;;;;;;11.13;1.10;;;19.20;45.20;;;;;;4902799;29;20434;-74
2023/03/25 11:43:25;;;;;;;1.00;0.80;;;19.20;45.20;;;;;;4918846;28;20468;-73
2023/03/25 11:45:52;;;;;;;3.17;1.00;;;19.20;45.20;;;;;;4914658;28;20476;-73
2023/03/25 11:48:30;;;;;;;2.40;1.17;;;19.20;45.20;;;;;;4918227;28;20436;-73
2023/03/25 11:51:00;;;;;;;1.70;1.13;;;19.30;45.30;;;;;;4916197;28;20548;-73
2023/03/25 11:53:29;;;;;;;5.17;1.03;;;19.20;45.30;;;;;;4900823;28;20427;-73
2023/03/25 11:55:59;;;;;;;2.80;1.00;;;19.20;45.30;;;;;;4921525;28;20443;-73
2023/03/25 11:58:32;;;;;;;4.23;1.10;;;19.20;45.40;;;;;;4915986;28;20424;-71
2023/03/25 12:01:06;;;;;;;2.63;0.90;;;19.20;45.30;;;;;;4917409;28;20567;-72
2023/03/25 12:03:33;;;;;;;2.57;1.13;;;19.20;45.30;;;;;;4919848;28;20434;-72
2023/03/25 12:06:15;;;;;;;2.50;0.93;;;19.20;45.40;;;;;;4919554;28;21666;-70
2023/03/25 12:08:55;;;;;;;1.03;0.77;;;19.20;45.40;;;;;;4897002;29;20471;-72
2023/03/25 12:11:47;;;;;;;1.77;1.10;;;19.20;45.50;;;;;;4916483;28;20957;-73
2023/03/25 12:14:27;;;;;;;5.73;1.50;;;19.20;45.50;;;;;;4917339;28;20467;-73
2023/03/25 12:17:28;;;;;;;1.37;0.80;;;19.20;45.50;;;;;;4911763;28;21831;-73
2023/03/25 12:20:13;;;;;;;1.10;0.90;;;19.20;45.50;;;;;;4912752;28;20450;-74
2023/03/25 12:23:15;;;;;;;1.30;0.70;;;19.20;45.50;;;;;;4911980;28;20473;-73
2023/03/25 12:25:44;;;;;;;1.53;0.80;;;19.20;45.40;;;;;;4914144;28;20431;-74
2023/03/25 12:28:39;;;;;;;3.80;0.90;;;19.20;45.50;;;;;;4918242;28;20439;-75
2023/03/25 12:31:14;;;;;;;1.13;1.00;;;19.20;45.40;;;;;;4921751;28;20923;-73
2023/03/25 12:33:51;;;;;;;1.73;0.80;;;19.20;45.50;;;;;;4915518;28;20475;-73
2023/03/25 12:36:44;;;;;;;2.97;1.10;;;19.20;45.50;;;;;;4916459;28;20843;-74
2023/03/25 12:39:42;;;;;;;1.93;1.00;;;19.20;45.40;;;;;;4915989;29;20426;-71
2023/03/25 12:42:33;;;;;;;1.00;0.90;;;19.20;45.30;;;;;;4919728;28;20543;-73
2023/03/25 12:45:20;;;;;;;1.30;1.20;;;19.20;45.20;;;;;;4915980;29;20470;-71
2023/03/25 12:47:58;;;;;;;0.77;0.77;;;19.30;45.20;;;;;;4918906;28;20436;-73
2023/03/25 12:50:55;;;;;;;1.40;1.07;;;19.30;45.10;;;;;;4916324;29;20468;-72
2023/03/25 12:54:02;;;;;;;1.73;0.90;;;19.30;45.00;;;;;;4915449;29;20432;-74
2023/03/25 12:56:46;;;;;;;5.53;0.80;;;19.40;45.10;;;;;;4916652;28;20439;-74
2023/03/25 12:59:36;;;;;;;5.30;0.90;;;19.40;45.20;;;;;;4897894;29;20420;-74
2023/03/25 13:02:19;;;;;;;2.93;1.10;;;19.30;45.10;;;;;;4899008;29;20473;-73
2023/03/25 13:05:09;;;;;;;2.37;0.83;;;19.30;45.30;;;;;;4915346;29;20458;-72
2023/03/25 13:07:43;;;;;;;1.00;0.77;;;19.30;45.30;;;;;;4915886;29;20439;-71
2023/03/25 13:10:36;;;;;;;4.20;1.27;;;19.30;45.30;;;;;;4915222;29;20870;-71